Time;durP1;ratioP1;P1;durP2;ratioP2;P2;SDS_P1;SDS_P2;PMS_P1;PMS_P2;Temp;Humidity;BMP_temperature;BMP_pressure;BME280_temperature;BME280_humidity;BME280_pressure;Samples;Min_cycle;Max_cycle;Signal;HPM_P1;HPM_P2
2020/12/10 07:16:40;;;;;;;46.45;21.63;;;;;;;;;;4438125;27;19785648;-68
2020/12/10 07:19:05;;;;;;;55.33;24.95;;;;;;;;;;5104571;28;20027;-70
2020/12/10 07:21:31;;;;;;;49.90;23.95;;;;;;;;;;5102905;28;20356;-69
2020/12/10 07:23:56;;;;;;;53.13;23.60;;;;;;;;;;5086755;28;20024;-67
2020/12/10 07:26:22;;;;;;;52.25;23.30;;;;;;;;;;5092105;28;20437;-68
2020/12/10 07:28:51;;;;;;;52.13;21.67;;;;;;;;;;5085974;28;20468;-66
2020/12/10 07:31:20;;;;;;;47.25;21.75;;;;;;;;;;5108046;28;20012;-67
2020/12/10 07:33:45;;;;;;;49.47;20.90;;;;;;;;;;5098925;28;20065;-66
2020/12/10 07:36:12;;;;;;;45.88;20.88;;;;;;;;;;5108449;28;20417;-68
2020/12/10 07:38:43;;;;;;;44.22;20.70;;;;;;;;;;5112968;28;20099;-68
2020/12/10 07:41:09;;;;;;;43.17;20.00;;;;;;;;;;5081931;28;20017;-69
2020/12/10 07:43:42;;;;;;;53.63;21.75;;;;;;;;;;5112373;28;20081;-68
2020/12/10 07:46:08;;;;;;;49.00;22.67;;;;;;;;;;5121723;28;20012;-66
2020/12/10 07:48:40;;;;;;;53.55;23.17;;;;;;;;;;5138633;28;20000;-69
2020/12/10 07:51:06;;;;;;;46.03;21.17;;;;;;;;;;5123591;28;20004;-67
2020/12/10 07:53:33;;;;;;;49.72;21.00;;;;;;;;;;5100042;28;20110;-71
2020/12/10 07:56:01;;;;;;;52.15;22.10;;;;;;;;;;5109769;28;20061;-68
2020/12/10 07:58:33;;;;;;;46.60;22.20;;;;;;;;;;5079604;28;20059;-68
2020/12/10 08:01:01;;;;;;;51.05;21.60;;;;;;;;;;5123811;28;20068;-69
2020/12/10 08:03:34;;;;;;;57.95;23.05;;;;;;;;;;5105309;28;20023;-68
2020/12/10 08:06:09;;;;;;;50.35;23.73;;;;;;;;;;5127106;28;20019;-67
2020/12/10 08:08:37;;;;;;;53.42;24.27;;;;;;;;;;5091786;28;20020;-67
2020/12/10 08:11:12;;;;;;;50.20;21.60;;;;;;;;;;5100069;28;20011;-69
2020/12/10 08:13:37;;;;;;;53.85;22.08;;;;;;;;;;5118444;28;20019;-68
2020/12/10 08:16:11;;;;;;;58.78;23.50;;;;;;;;;;5106656;28;20044;-68
2020/12/10 08:18:38;;;;;;;53.00;22.88;;;;;;;;;;5075286;28;20009;-68
2020/12/10 08:21:06;;;;;;;55.50;22.55;;;;;;;;;;5091596;28;20019;-68
2020/12/10 08:23:41;;;;;;;55.88;22.65;;;;;;;;;;5089466;28;20078;-68
2020/12/10 08:26:09;;;;;;;53.85;22.02;;;;;;;;;;5086933;28;20015;-68
2020/12/10 08:28:35;;;;;;;58.95;22.95;;;;;;;;;;5093812;28;20000;-68
2020/12/10 08:31:00;;;;;;;55.13;22.77;;;;;;;;;;5081815;28;20016;-68
2020/12/10 08:33:35;;;;;;;94.57;25.77;;;;;;;;;;5064010;28;20131;-69
2020/12/10 08:36:01;;;;;;;49.53;21.52;;;;;;;;;;5089919;28;20381;-68
2020/12/10 08:38:26;;;;;;;46.85;19.00;;;;;;;;;;5090821;28;20026;-70
2020/12/10 08:41:05;;;;;;;44.13;19.13;;;;;;;;;;5062045;28;20013;-71
2020/12/10 08:43:31;;;;;;;42.55;19.52;;;;;;;;;;5081630;28;20465;-64
2020/12/10 08:46:00;;;;;;;43.70;20.38;;;;;;;;;;5087579;28;20023;-66
2020/12/10 08:48:25;;;;;;;;;;;;;;;;;;5078074;28;20012;-68
2020/12/10 08:50:52;;;;;;;40.22;17.52;;;;;;;;;;5088060;28;19912;-69
2020/12/10 08:53:17;;;;;;;43.63;20.20;;;;;;;;;;5082984;28;20024;-72
2020/12/10 08:55:45;;;;;;;41.80;18.10;;;;;;;;;;5059935;28;20084;-70
2020/12/10 08:58:20;;;;;;;40.58;19.88;;;;;;;;;;5085726;28;20024;-74
2020/12/10 09:00:47;;;;;;;43.83;20.55;;;;;;;;;;5071887;28;20419;-66
2020/12/10 09:03:14;;;;;;;39.78;19.70;;;;;;;;;;5083724;28;20009;-68
2020/12/10 09:05:40;;;;;;;41.55;19.70;;;;;;;;;;5085473;28;20017;-68
2020/12/10 09:08:05;;;;;;;52.58;21.10;;;;;;;;;;5076752;28;20070;-68
2020/12/10 09:10:31;;;;;;;42.95;20.98;;;;;;;;;;5090019;28;20004;-72
2020/12/10 09:12:57;;;;;;;43.90;21.02;;;;;;;;;;5079037;28;20023;-72
2020/12/10 09:15:22;;;;;;;31.95;15.70;;;;;;;;;;5083573;28;20041;-68
2020/12/10 09:17:47;;;;;;;46.42;21.05;;;;;;;;;;5083769;28;20027;-70
2020/12/10 09:20:13;;;;;;;51.42;22.60;;;;;;;;;;5090791;28;20017;-71
2020/12/10 09:22:38;;;;;;;53.60;21.88;;;;;;;;;;5075160;28;20078;-73
2020/12/10 09:27:39;;;;;;;54.30;21.95;;;;;;;;;;5880593;22;20739;-67
2020/12/10 09:30:05;;;;;;;59.70;24.05;;;;;;;;;;5049904;28;20574;-66
2020/12/10 09:32:34;;;;;;;51.75;23.00;;;;;;;;;;5053205;28;20476;-66
2020/12/10 09:37:34;;;;;;;54.45;25.02;;;;;;;;;;5796022;22;20067;-66
2020/12/10 09:40:00;;;;;;;50.45;22.75;;;;;;;;;;4977402;28;20034;-68
2020/12/10 09:42:27;;;;;;;54.40;23.70;;;;;;;;;;4966385;28;20022;-71
2020/12/10 09:44:52;;;;;;;54.25;23.95;;;;;;;;;;4987540;28;20014;-67
2020/12/10 09:47:18;;;;;;;59.20;24.63;;;;;;;;;;5003203;28;20018;-69
2020/12/10 09:49:44;;;;;;;51.25;25.33;;;;;;;;;;4979784;28;20141;-70
2020/12/10 09:52:11;;;;;;;57.17;24.55;;;;;;;;;;4994853;28;20076;-67
2020/12/10 09:59:48;;;;;;;59.40;24.92;;;;;;;;;;5012640;28;20076;-68
2020/12/10 10:02:16;;;;;;;56.13;25.05;;;;;;;;;;4995725;28;20058;-69
2020/12/10 10:04:42;;;;;;;70.40;28.50;;;;;;;;;;4996429;28;20010;-69
2020/12/10 10:07:07;;;;;;;68.78;29.50;;;;;;;;;;5011839;28;20091;-67
2020/12/10 10:09:33;;;;;;;55.05;24.75;;;;;;;;;;4995316;28;20030;-66
2020/12/10 10:11:59;;;;;;;52.78;25.20;;;;;;;;;;5013202;28;20022;-69
2020/12/10 10:14:29;;;;;;;129.27;34.53;;;;;;;;;;4994699;28;20022;-68
2020/12/10 10:16:54;;;;;;;58.40;24.95;;;;;;;;;;4995208;28;20079;-68
2020/12/10 10:19:20;;;;;;;63.22;26.67;;;;;;;;;;4994845;28;20102;-66
2020/12/10 10:21:45;;;;;;;57.60;27.85;;;;;;;;;;4994727;28;20022;-68
2020/12/10 10:24:11;;;;;;;55.78;26.40;;;;;;;;;;4979063;28;20441;-68
2020/12/10 10:26:36;;;;;;;56.45;26.20;;;;;;;;;;5012840;28;20014;-64
2020/12/10 10:29:06;;;;;;;56.45;28.63;;;;;;;;;;5002823;28;20023;-66
2020/12/10 10:31:31;;;;;;;59.53;26.65;;;;;;;;;;4994625;28;20052;-67
2020/12/10 10:33:56;;;;;;;54.33;26.85;;;;;;;;;;4996846;28;20466;-65
2020/12/10 10:36:22;;;;;;;57.17;27.58;;;;;;;;;;4981579;28;20039;-67
2020/12/10 10:39:02;;;;;;;56.67;28.92;;;;;;;;;;4982388;28;20065;-66
2020/12/10 10:41:28;;;;;;;;;;;;;;;;;;4991355;28;20015;-67
2020/12/10 10:43:58;;;;;;;51.70;25.52;;;;;;;;;;4989377;28;19909;-67
2020/12/10 10:46:23;;;;;;;62.33;28.48;;;;;;;;;;4994889;28;20404;-67
2020/12/10 10:48:49;;;;;;;40.75;22.55;;;;;;;;;;5012254;28;20030;-67
2020/12/10 10:51:14;;;;;;;36.50;19.42;;;;;;;;;;5011526;28;20481;-66
2020/12/10 10:53:40;;;;;;;31.48;17.88;;;;;;;;;;5010936;28;20018;-67
2020/12/10 10:56:06;;;;;;;28.52;16.70;;;;;;;;;;5012035;28;20042;-67
2020/12/10 10:58:32;;;;;;;27.25;14.15;;;;;;;;;;4978671;28;20111;-66
2020/12/10 11:00:57;;;;;;;24.98;14.48;;;;;;;;;;5012017;28;20013;-67
2020/12/10 11:03:23;;;;;;;21.17;12.35;;;;;;;;;;4994152;28;20021;-67
2020/12/10 11:05:48;;;;;;;20.40;12.70;;;;;;;;;;5012000;28;20021;-67
2020/12/10 11:08:14;;;;;;;21.83;12.13;;;;;;;;;;5011096;28;20029;-69
2020/12/10 11:10:39;;;;;;;20.90;12.50;;;;;;;;;;5011884;28;20014;-68
2020/12/10 11:13:05;;;;;;;18.70;12.25;;;;;;;;;;5012115;28;20057;-66
2020/12/10 11:15:31;;;;;;;23.05;13.82;;;;;;;;;;4993504;28;20084;-68
2020/12/10 11:17:57;;;;;;;21.63;11.65;;;;;;;;;;5012144;28;20022;-66
2020/12/10 11:20:30;;;;;;;25.92;14.55;;;;;;;;;;5012100;28;20014;-68
2020/12/10 11:22:55;;;;;;;24.77;15.68;;;;;;;;;;5012136;28;20010;-67
2020/12/10 11:25:20;;;;;;;27.52;15.38;;;;;;;;;;4993712;28;20096;-66
2020/12/10 11:27:47;;;;;;;26.73;15.57;;;;;;;;;;5011543;28;20018;-67
2020/12/10 11:30:24;;;;;;;22.48;14.60;;;;;;;;;;5011631;28;20046;-68
2020/12/10 11:32:50;;;;;;;21.33;13.45;;;;;;;;;;5010381;28;20014;-67
2020/12/10 11:35:15;;;;;;;24.70;13.18;;;;;;;;;;5010468;28;20034;-65
2020/12/10 11:37:41;;;;;;;19.95;11.35;;;;;;;;;;5010659;28;20395;-67
2020/12/10 11:40:09;;;;;;;15.18;9.80;;;;;;;;;;4993613;28;20025;-68
2020/12/10 11:42:42;;;;;;;17.45;9.40;;;;;;;;;;4982290;28;20109;-67
2020/12/10 11:45:08;;;;;;;19.90;12.27;;;;;;;;;;5011104;28;20033;-68
2020/12/10 11:47:33;;;;;;;20.02;11.30;;;;;;;;;;4993550;28;20030;-68
2020/12/10 11:49:58;;;;;;;19.23;10.57;;;;;;;;;;5010467;28;20018;-68
2020/12/10 11:52:24;;;;;;;13.35;9.40;;;;;;;;;;5010661;28;20018;-68
2020/12/10 11:54:49;;;;;;;18.42;10.25;;;;;;;;;;5010292;28;20042;-66
2020/12/10 11:57:18;;;;;;;23.65;10.10;;;;;;;;;;5011441;28;20032;-65
2020/12/10 11:59:44;;;;;;;;;;;;;;;;;;5011642;28;20057;-68
2020/12/10 12:02:09;;;;;;;12.82;7.88;;;;;;;;;;5013099;28;19941;-68
2020/12/10 12:04:36;;;;;;;12.00;8.63;;;;;;;;;;5015248;28;20405;-68
2020/12/10 12:07:03;;;;;;;14.27;8.50;;;;;;;;;;5013840;28;20020;-67
2020/12/10 12:09:28;;;;;;;16.40;8.82;;;;;;;;;;5013986;28;20420;-70
2020/12/10 12:11:53;;;;;;;22.13;9.55;;;;;;;;;;4997520;28;20061;-67
2020/12/10 12:14:19;;;;;;;20.58;9.70;;;;;;;;;;5014661;28;20030;-64
2020/12/10 12:16:45;;;;;;;13.52;9.07;;;;;;;;;;5014424;28;20171;-71
2020/12/10 12:19:10;;;;;;;14.00;10.30;;;;;;;;;;5014832;28;20105;-65
2020/12/10 12:21:36;;;;;;;15.38;9.63;;;;;;;;;;5013101;28;20104;-69
2020/12/10 12:24:01;;;;;;;11.40;9.27;;;;;;;;;;4997291;28;20017;-67
2020/12/10 12:26:28;;;;;;;16.77;10.50;;;;;;;;;;5014877;28;20528;-67
2020/12/10 12:28:54;;;;;;;12.63;9.13;;;;;;;;;;5013845;28;20026;-67
2020/12/10 12:31:19;;;;;;;23.70;14.20;;;;;;;;;;5014431;28;20049;-63
2020/12/10 12:33:44;;;;;;;16.83;10.63;;;;;;;;;;5012897;28;20385;-67
2020/12/10 12:36:11;;;;;;;26.83;15.20;;;;;;;;;;5013970;28;20026;-64
2020/12/10 12:38:36;;;;;;;24.20;11.73;;;;;;;;;;4986140;28;20046;-68
2020/12/10 12:41:02;;;;;;;14.75;9.50;;;;;;;;;;5014676;28;20025;-68
2020/12/10 12:43:28;;;;;;;14.93;9.70;;;;;;;;;;5012515;28;20021;-65
2020/12/10 12:45:53;;;;;;;12.00;8.27;;;;;;;;;;4996860;28;20030;-66
2020/12/10 13:03:05;;;;;;;11.77;8.40;;;;;;;;;;5141790;27;889346;-63
2020/12/10 13:05:34;;;;;;;10.38;7.68;;;;;;;;;;5133543;27;20475;-66
2020/12/10 13:07:59;;;;;;;28.83;11.13;;;;;;;;;;5143484;27;20030;-64
2020/12/10 13:10:25;;;;;;;19.48;9.63;;;;;;;;;;5121097;27;20011;-64
2020/12/10 13:12:51;;;;;;;15.50;9.48;;;;;;;;;;5126098;27;20348;-63
2020/12/10 13:15:16;;;;;;;15.98;8.25;;;;;;;;;;5132824;27;20016;-66
2020/12/10 13:17:42;;;;;;;18.80;10.85;;;;;;;;;;5128190;28;20067;-66
2020/12/10 13:20:08;;;;;;;16.42;10.20;;;;;;;;;;5118719;27;20047;-66
2020/12/10 13:22:34;;;;;;;16.23;9.48;;;;;;;;;;5119458;28;20031;-66
2020/12/10 13:27:37;;;;;;;14.43;10.02;;;;;;;;;;5131752;27;20058;-67
2020/12/10 13:30:04;;;;;;;21.35;11.57;;;;;;;;;;5142477;27;20356;-68
2020/12/10 13:32:30;;;;;;;21.17;10.93;;;;;;;;;;5121160;27;20026;-68
2020/12/10 13:34:57;;;;;;;22.73;11.77;;;;;;;;;;5135422;27;20020;-65
2020/12/10 13:37:24;;;;;;;16.73;10.13;;;;;;;;;;5145683;27;20094;-65
2020/12/10 13:39:49;;;;;;;18.38;11.70;;;;;;;;;;5133441;27;20026;-66
2020/12/10 13:42:19;;;;;;;15.68;10.90;;;;;;;;;;5141265;27;20027;-67
2020/12/10 13:44:52;;;;;;;21.67;12.45;;;;;;;;;;5123614;27;20323;-71
2020/12/10 13:47:19;;;;;;;28.20;14.57;;;;;;;;;;5133956;27;20106;-70
2020/12/10 13:49:52;;;;;;;24.08;12.35;;;;;;;;;;5126221;28;20477;-70
2020/12/10 13:52:22;;;;;;;28.02;13.98;;;;;;;;;;5127938;27;20103;-70
2020/12/10 13:54:59;;;;;;;25.95;14.13;;;;;;;;;;5097825;28;20020;-68
2020/12/10 13:57:28;;;;;;;18.17;11.52;;;;;;;;;;5106729;28;20372;-66
2020/12/10 13:59:54;;;;;;;19.77;12.60;;;;;;;;;;5121934;28;20019;-67
2020/12/10 14:02:23;;;;;;;16.42;10.77;;;;;;;;;;5114847;28;20044;-65
2020/12/10 14:04:59;;;;;;;17.50;11.85;;;;;;;;;;5108687;28;20023;-65
2020/12/10 14:07:24;;;;;;;17.77;11.43;;;;;;;;;;5097315;28;20013;-65
2020/12/10 14:09:50;;;;;;;19.65;11.98;;;;;;;;;;5074507;28;20030;-68
2020/12/10 14:12:44;;;;;;;15.02;10.15;;;;;;;;;;5102931;28;20030;-67
2020/12/10 14:15:11;;;;;;;16.05;10.85;;;;;;;;;;5084464;28;20020;-67
2020/12/10 14:17:40;;;;;;;17.98;11.60;;;;;;;;;;5110790;28;20020;-65
2020/12/10 14:20:27;;;;;;;19.23;12.27;;;;;;;;;;5102524;28;20024;-65
2020/12/10 14:22:52;;;;;;;15.63;10.38;;;;;;;;;;5081452;28;20123;-65
2020/12/10 14:25:18;;;;;;;16.67;10.70;;;;;;;;;;5092695;28;20450;-66
2020/12/10 14:27:52;;;;;;;16.38;11.95;;;;;;;;;;5079880;28;20099;-66
2020/12/10 14:30:25;;;;;;;15.40;11.15;;;;;;;;;;5103859;28;20109;-67
2020/12/10 14:32:52;;;;;;;16.38;11.60;;;;;;;;;;5107769;28;20460;-66
2020/12/10 14:35:34;;;;;;;;;;;;;;;;;;;;;
2020/12/10 14:38:00;;;;;;;15.40;10.25;;;;;;;;;;5107660;28;20016;-68
2020/12/10 14:40:26;;;;;;;15.05;10.25;;;;;;;;;;5103230;28;20095;-69
2020/12/10 14:42:55;;;;;;;14.38;9.75;;;;;;;;;;5082696;28;20028;-70
2020/12/10 14:45:27;;;;;;;12.50;9.60;;;;;;;;;;5091429;28;20094;-69
2020/12/10 14:47:53;;;;;;;18.73;10.65;;;;;;;;;;5095089;28;20047;-69
2020/12/10 14:50:26;;;;;;;16.55;11.15;;;;;;;;;;5103350;28;20015;-69
2020/12/10 14:52:58;;;;;;;17.83;11.10;;;;;;;;;;5081463;28;20478;-70
2020/12/10 14:55:33;;;;;;;17.65;12.00;;;;;;;;;;5109737;28;20414;-68
2020/12/10 14:57:59;;;;;;;20.25;11.55;;;;;;;;;;5083050;28;20035;-68
2020/12/10 15:00:25;;;;;;;17.00;10.85;;;;;;;;;;5084450;28;20017;-69
2020/12/10 15:02:53;;;;;;;17.85;12.70;;;;;;;;;;5106121;28;20134;-68
2020/12/10 15:05:41;;;;;;;18.90;11.93;;;;;;;;;;5080821;28;20019;-66
2020/12/10 15:08:14;;;;;;;17.58;11.88;;;;;;;;;;5088300;28;20157;-65
2020/12/10 15:10:41;;;;;;;18.70;12.25;;;;;;;;;;5104683;28;20095;-66
2020/12/10 15:13:09;;;;;;;22.95;13.60;;;;;;;;;;5079350;28;20111;-66
2020/12/10 15:15:35;;;;;;;23.75;14.82;;;;;;;;;;5108693;28;20016;-66
2020/12/10 15:18:13;;;;;;;21.65;14.05;;;;;;;;;;5101224;28;20043;-68
2020/12/10 15:20:39;;;;;;;23.73;14.50;;;;;;;;;;5101309;28;20028;-65
2020/12/10 15:23:12;;;;;;;22.67;14.18;;;;;;;;;;5108905;28;20157;-67
2020/12/10 15:25:40;;;;;;;15.98;11.50;;;;;;;;;;5096345;28;20050;-67
2020/12/10 15:28:07;;;;;;;18.48;12.18;;;;;;;;;;5106291;28;20161;-67
2020/12/10 15:30:46;;;;;;;17.63;11.57;;;;;;;;;;5103385;28;20098;-66
2020/12/10 15:33:28;;;;;;;17.63;11.98;;;;;;;;;;5080977;28;20032;-66
2020/12/10 15:35:54;;;;;;;31.10;16.60;;;;;;;;;;5089631;28;20031;-66
2020/12/10 15:38:19;;;;;;;28.10;15.85;;;;;;;;;;5101874;28;20012;-66
2020/12/10 15:40:45;;;;;;;24.92;15.52;;;;;;;;;;5100390;28;20023;-65
2020/12/10 15:43:12;;;;;;;28.95;16.23;;;;;;;;;;5108798;28;20058;-67
2020/12/10 15:45:40;;;;;;;28.90;12.77;;;;;;;;;;5096305;28;20019;-65
